Time;durP1;ratioP1;P1;durP2;ratioP2;P2;SDS_P1;SDS_P2;PMS_P1;PMS_P2;Temp;Humidity;BMP_temperature;BMP_pressure;BME280_temperature;BME280_humidity;BME280_pressure;Samples;Min_cycle;Max_cycle;Signal;HPM_P1;HPM_P2
2022/10/21 00:00:15;;;;;;;3.87;1.90;;;;;;;0.41;78.72;96507.44;1737417;82;21076;-80
2022/10/21 00:02:44;;;;;;;3.03;1.83;;;;;;;0.39;78.48;96503.90;1735853;82;21082;-80
2022/10/21 00:05:11;;;;;;;4.17;2.37;;;;;;;0.35;78.53;96510.22;1719532;82;21098;-80
2022/10/21 00:07:38;;;;;;;2.80;1.70;;;;;;;0.30;78.61;96501.39;1727837;82;21038;-80
2022/10/21 00:10:07;;;;;;;3.63;1.80;;;;;;;0.24;78.23;96505.08;1723644;82;21030;-80
2022/10/21 00:12:35;;;;;;;3.23;1.97;;;;;;;0.26;78.12;96508.61;1726455;82;21551;-80
2022/10/21 00:15:05;;;;;;;4.17;1.80;;;;;;;0.20;78.73;96506.27;1722752;82;21508;-80
2022/10/21 00:17:36;;;;;;;2.90;1.43;;;;;;;0.28;78.44;96506.93;1735047;82;21488;-80
2022/10/21 00:20:06;;;;;;;2.27;1.27;;;;;;;0.21;77.76;96501.53;1727577;82;21052;-80
2022/10/21 00:22:33;;;;;;;2.20;1.10;;;;;;;0.25;78.12;96505.11;1736692;82;21041;-80
2022/10/21 00:25:00;;;;;;;2.83;1.50;;;;;;;0.29;78.15;96501.81;1728725;82;21030;-79
2022/10/21 00:27:27;;;;;;;4.23;2.20;;;;;;;0.21;78.80;96504.55;1721739;82;21055;-79
2022/10/21 00:29:53;;;;;;;3.50;2.20;;;;;;;0.24;79.02;96502.48;1733125;82;21021;-78
2022/10/21 00:32:20;;;;;;;3.57;2.27;;;;;;;0.29;79.06;96499.21;1737187;82;21061;-79
2022/10/21 00:34:47;;;;;;;3.67;1.40;;;;;;;0.27;78.81;96497.39;1722725;82;21499;-79
2022/10/21 00:37:16;;;;;;;1.70;1.30;;;;;;;0.21;78.34;96497.64;1724598;82;21089;-79
2022/10/21 00:39:43;;;;;;;1.93;1.07;;;;;;;0.25;78.32;96493.85;1730383;82;21056;-79
2022/10/21 00:42:17;;;;;;;2.73;1.53;;;;;;;0.16;79.03;96494.42;1736570;82;21555;-80
2022/10/21 00:45:08;;;;;;;2.27;1.30;;;;;;;0.17;79.01;96489.27;1730870;82;21057;-79
2022/10/21 00:47:55;;;;;;;2.57;1.30;;;;;;;0.22;79.11;96481.65;1733885;82;21049;-79
2022/10/21 00:50:55;;;;;;;2.33;1.20;;;;;;;0.17;78.75;96483.20;1737672;82;21022;-80
2022/10/21 00:53:23;;;;;;;3.63;1.20;;;;;;;0.05;79.21;96482.75;1732889;82;21134;-79
2022/10/21 00:55:56;;;;;;;5.27;1.40;;;;;;;-0.06;79.84;96491.03;1731475;82;21025;-80
2022/10/21 00:58:26;;;;;;;1.63;1.27;;;;;;;-0.04;79.69;96489.39;1731798;82;21062;-80
2022/10/21 01:00:57;;;;;;;2.00;1.00;;;;;;;-0.10;79.19;96481.39;1732018;81;21806;-81
2022/10/21 01:03:26;;;;;;;2.63;0.97;;;;;;;-0.12;79.05;96482.17;1737085;81;21001;-81
2022/10/21 01:05:54;;;;;;;4.20;1.43;;;;;;;-0.23;79.71;96482.66;1723818;82;21139;-80
2022/10/21 01:08:23;;;;;;;1.40;0.90;;;;;;;-0.23;79.65;96481.74;1679749;84;21041;-81
2022/10/21 01:10:50;;;;;;;3.03;1.00;;;;;;;-0.27;79.41;96486.37;1706754;84;21113;-81
2022/10/21 01:13:51;;;;;;;1.03;0.80;;;;;;;-0.24;79.56;96479.99;1724996;83;21041;-81
2022/10/21 01:16:47;;;;;;;1.37;0.90;;;;;;;-0.17;79.47;96471.62;1701000;83;21050;-81
2022/10/21 01:20:06;;;;;;;4.70;1.50;;;;;;;-0.28;79.30;96468.64;1701237;84;21006;-79
2022/10/21 01:23:09;;;;;;;3.50;0.97;;;;;;;-0.37;79.60;96470.88;1704959;84;21588;-81
2022/10/21 01:26:04;;;;;;;2.40;1.00;;;;;;;-0.43;79.97;96473.22;1706294;84;21045;-81
2022/10/21 01:28:45;;;;;;;5.37;1.27;;;;;;;-0.50;80.31;96473.42;1668268;84;21640;-75
2022/10/21 01:31:40;;;;;;;5.43;1.70;;;;;;;-0.47;80.27;96470.94;1703749;84;21046;-81
2022/10/21 01:34:26;;;;;;;1.10;0.80;;;;;;;-0.44;80.64;96470.17;1734364;81;21520;-82
2022/10/21 01:36:58;;;;;;;0.90;0.60;;;;;;;-0.45;80.15;96471.88;1705021;84;21003;-82
2022/10/21 01:39:39;;;;;;;1.57;1.07;;;;;;;-0.47;80.33;96468.34;1702184;84;21097;-83
2022/10/21 01:42:11;;;;;;;1.90;0.97;;;;;;;-0.40;80.40;96465.97;1702231;84;21117;-83
2022/10/21 01:44:50;;;;;;;3.10;1.63;;;;;;;-0.36;79.87;96464.84;1729197;82;21041;-82
2022/10/21 01:47:25;;;;;;;2.53;1.13;;;;;;;-0.36;79.75;96469.16;1730898;82;21057;-83
2022/10/21 01:49:59;;;;;;;2.93;0.80;;;;;;;-0.44;79.80;96463.27;1734809;82;21101;-82
2022/10/21 01:52:27;;;;;;;1.40;1.00;;;;;;;-0.45;79.50;96461.52;1736566;82;21046;-83
2022/10/21 01:54:58;;;;;;;2.27;1.30;;;;;;;-0.42;79.40;96454.69;1737464;82;21065;-83
2022/10/21 01:57:29;;;;;;;2.23;1.00;;;;;;;-0.45;79.10;96444.66;1732803;82;21039;-83
2022/10/21 01:59:59;;;;;;;2.03;1.27;;;;;;;-0.42;79.34;96448.20;1736691;82;21157;-83
2022/10/21 02:02:33;;;;;;;5.27;1.60;;;;;;;-0.44;79.38;96448.13;1731119;82;21034;-83
2022/10/21 02:05:05;;;;;;;1.77;1.07;;;;;;;-0.41;79.54;96448.23;1714819;82;21549;-81
2022/10/21 02:07:32;;;;;;;3.13;1.10;;;;;;;-0.40;78.96;96443.93;1741982;82;21010;-83
2022/10/21 02:09:58;;;;;;;1.80;1.00;;;;;;;-0.44;79.32;96450.72;1736453;82;21547;-82
2022/10/21 02:12:28;;;;;;;3.20;1.00;;;;;;;-0.41;79.08;96446.06;1730845;81;21531;-83
2022/10/21 02:14:56;;;;;;;3.73;0.90;;;;;;;-0.40;79.21;96447.43;1706170;84;21030;-82
2022/10/21 02:17:25;;;;;;;2.40;0.90;;;;;;;-0.39;78.93;96441.83;1705347;84;21037;-82
2022/10/21 02:19:55;;;;;;;1.50;0.90;;;;;;;-0.38;78.99;96443.58;1735545;82;21572;-82
2022/10/21 02:22:24;;;;;;;1.83;1.10;;;;;;;-0.42;78.29;96439.13;1741259;82;21042;-83
2022/10/21 02:24:58;;;;;;;2.37;0.90;;;;;;;-0.46;78.49;96444.59;1738767;82;21069;-83
2022/10/21 02:27:26;;;;;;;1.20;0.63;;;;;;;-0.40;79.02;96442.63;1734549;82;21042;-82
2022/10/21 02:29:56;;;;;;;1.63;1.10;;;;;;;-0.40;78.39;96439.66;1732196;81;21132;-83
2022/10/21 02:32:37;;;;;;;2.77;1.00;;;;;;;-0.45;78.84;96448.55;1703109;83;21072;-83
2022/10/21 02:35:25;;;;;;;1.00;0.50;;;;;;;-0.51;78.86;96447.01;1704534;84;21209;-82
2022/10/21 02:37:57;;;;;;;2.37;1.23;;;;;;;-0.58;78.35;96447.63;1706519;84;21101;-82
2022/10/21 02:40:34;;;;;;;0.50;0.50;;;;;;;-0.65;79.09;96445.62;1704663;82;21055;-82
2022/10/21 02:43:12;;;;;;;0.93;0.57;;;;;;;-0.67;78.63;96438.20;1705135;82;21029;-82
2022/10/21 02:45:39;;;;;;;0.80;0.67;;;;;;;-0.64;78.70;96438.73;1711369;83;21061;-82
2022/10/21 02:48:06;;;;;;;1.00;0.60;;;;;;;-0.60;78.47;96438.91;1735488;82;21002;-82
2022/10/21 02:50:33;;;;;;;0.93;0.70;;;;;;;-0.57;78.61;96440.31;1736381;82;21046;-82
2022/10/21 02:52:59;;;;;;;2.80;0.87;;;;;;;-0.61;78.54;96439.70;1735126;82;21567;-83
2022/10/21 02:55:26;;;;;;;0.90;0.60;;;;;;;-0.64;78.83;96440.02;1732977;82;21145;-82
2022/10/21 02:57:53;;;;;;;0.87;0.50;;;;;;;-0.64;78.43;96438.30;1699101;84;21057;-82
2022/10/21 03:00:20;;;;;;;1.10;0.57;;;;;;;-0.60;78.43;96430.25;1732782;82;21546;-82
2022/10/21 03:02:47;;;;;;;4.23;1.53;;;;;;;-0.56;78.50;96432.11;1729734;82;21515;-82
2022/10/21 03:05:14;;;;;;;1.80;0.60;;;;;;;-0.58;78.09;96429.88;1722999;82;21497;-82
2022/10/21 03:07:41;;;;;;;3.20;0.70;;;;;;;-0.66;77.70;96434.37;1729703;82;22457;-82
2022/10/21 03:10:08;;;;;;;0.47;0.40;;;;;;;-0.60;78.32;96428.53;1734083;81;21097;-83
2022/10/21 03:12:35;;;;;;;1.00;0.70;;;;;;;-0.67;77.69;96427.83;1731278;82;21031;-79
2022/10/21 03:15:02;;;;;;;0.97;0.70;;;;;;;-0.64;78.30;96428.36;1733148;82;21093;-83
2022/10/21 03:17:29;;;;;;;1.23;0.80;;;;;;;-0.61;78.35;96422.86;1736748;82;21564;-82
2022/10/21 03:19:55;;;;;;;1.10;0.67;;;;;;;-0.59;78.09;96426.82;1737620;82;21038;-83
2022/10/21 03:22:22;;;;;;;1.70;0.80;;;;;;;-0.61;77.61;96433.65;1701855;83;21023;-83
2022/10/21 03:24:49;;;;;;;1.07;0.70;;;;;;;-0.68;77.87;96429.94;1726284;82;20994;-83
2022/10/21 03:27:16;;;;;;;0.83;0.53;;;;;;;-0.74;77.97;96438.36;1734007;82;21042;-83
2022/10/21 03:29:42;;;;;;;0.80;0.57;;;;;;;-0.70;78.09;96427.72;1731454;82;21019;-82
2022/10/21 03:32:09;;;;;;;1.23;0.70;;;;;;;-0.76;77.47;96428.77;1728839;82;21123;-83
2022/10/21 03:34:36;;;;;;;0.87;0.50;;;;;;;-0.84;78.66;96435.37;1725371;82;21074;-83
2022/10/21 03:37:02;;;;;;;4.57;0.77;;;;;;;-0.88;78.84;96431.38;1700622;83;20983;-82
2022/10/21 03:39:29;;;;;;;1.53;0.57;;;;;;;-0.85;78.35;96425.42;1737126;82;21030;-83
2022/10/21 03:41:56;;;;;;;0.83;0.40;;;;;;;-0.85;78.27;96420.66;1727482;82;21500;-83
2022/10/21 03:44:22;;;;;;;1.50;0.63;;;;;;;-0.83;77.87;96418.59;1720938;82;21070;-80
2022/10/21 03:46:50;;;;;;;1.40;0.63;;;;;;;-0.92;78.13;96415.64;1734332;82;21037;-83
2022/10/21 03:49:17;;;;;;;1.33;0.90;;;;;;;-0.94;77.73;96412.98;1732420;82;21050;-82
2022/10/21 03:51:44;;;;;;;2.53;1.20;;;;;;;-0.85;78.32;96415.06;1730115;82;21129;-82
2022/10/21 03:54:10;;;;;;;9.77;5.47;;;;;;;-0.75;78.41;96416.30;1728194;82;21554;-80
2022/10/21 03:56:37;;;;;;;2.23;1.60;;;;;;;-0.72;78.09;96414.69;1725151;82;21034;-82
2022/10/21 03:59:03;;;;;;;2.87;1.50;;;;;;;-0.68;77.54;96412.70;1737445;82;21042;-82
2022/10/21 04:01:30;;;;;;;1.67;1.20;;;;;;;-0.74;77.37;96410.28;1737112;82;21410;-83
2022/10/21 04:03:57;;;;;;;5.60;1.60;;;;;;;-0.76;76.95;96409.33;1734149;82;21048;-82
2022/10/21 04:06:24;;;;;;;5.83;1.27;;;;;;;-0.90;77.03;96409.70;1735028;82;21544;-82
2022/10/21 04:08:51;;;;;;;1.37;0.83;;;;;;;-0.84;77.59;96406.45;1737724;82;21034;-82
2022/10/21 04:11:17;;;;;;;1.23;0.90;;;;;;;-0.83;77.09;96409.91;1737344;82;21038;-83
2022/10/21 04:13:44;;;;;;;3.97;0.73;;;;;;;-0.94;76.75;96404.33;1724126;82;21513;-82
2022/10/21 04:16:14;;;;;;;1.10;0.70;;;;;;;-0.88;77.67;96405.47;1702951;84;21049;-83
2022/10/21 04:18:41;;;;;;;1.87;0.90;;;;;;;-0.86;76.94;96396.44;1705530;82;21047;-82
2022/10/21 04:21:08;;;;;;;1.70;0.60;;;;;;;-0.83;77.11;96399.55;1737684;82;21638;-82
2022/10/21 04:23:35;;;;;;;3.63;0.57;;;;;;;-0.82;76.86;96390.97;1735852;82;21092;-82
2022/10/21 04:26:04;;;;;;;1.40;0.60;;;;;;;-0.96;76.34;96394.31;1724270;82;21078;-82
2022/10/21 04:28:31;;;;;;;1.70;0.60;;;;;;;-0.98;76.94;96390.39;1726497;82;21140;-82
2022/10/21 04:30:58;;;;;;;0.77;0.60;;;;;;;-1.16;76.72;96389.27;1731489;82;21078;-79
2022/10/21 04:33:24;;;;;;;1.40;0.50;;;;;;;-1.26;77.45;96396.20;1726942;82;21085;-82
2022/10/21 04:35:54;;;;;;;4.07;1.60;;;;;;;-1.39;77.40;96392.64;1734760;82;21037;-81
2022/10/21 04:38:22;;;;;;;0.53;0.40;;;;;;;-1.45;77.94;96388.10;1740461;82;21081;-83
2022/10/21 04:40:57;;;;;;;2.00;1.23;;;;;;;-1.36;78.12;96393.66;1733596;82;21532;-83
2022/10/21 04:43:25;;;;;;;1.73;0.87;;;;;;;-1.28;78.18;96386.20;1735575;82;21356;-83
2022/10/21 04:45:53;;;;;;;2.00;1.03;;;;;;;-1.21;77.97;96387.30;1738272;82;21500;-82
2022/10/21 04:48:21;;;;;;;4.47;1.60;;;;;;;-1.18;77.25;96387.45;1699531;84;21052;-83
2022/10/21 04:50:51;;;;;;;2.20;1.20;;;;;;;-1.26;77.07;96394.91;1703610;84;21038;-83
2022/10/21 04:53:19;;;;;;;1.23;0.90;;;;;;;-1.20;77.74;96399.45;1704589;84;21050;-82
2022/10/21 04:55:53;;;;;;;0.80;0.47;;;;;;;-1.27;76.70;96401.31;1700782;84;21042;-78
2022/10/21 04:58:21;;;;;;;1.07;0.70;;;;;;;-1.30;76.93;96399.48;1704240;84;21114;-77
2022/10/21 05:00:52;;;;;;;1.47;0.50;;;;;;;-1.24;77.14;96391.95;1702822;84;21097;-81
2022/10/21 05:03:19;;;;;;;3.30;2.23;;;;;;;-1.32;76.85;96389.47;1707948;84;21168;-73
2022/10/21 05:05:51;;;;;;;6.33;2.17;;;;;;;-1.36;77.45;96389.78;1697819;84;21098;-67
2022/10/21 05:08:19;;;;;;;3.93;2.30;;;;;;;-1.37;77.83;96393.17;1702650;84;21097;-73
2022/10/21 05:10:46;;;;;;;1.90;1.07;;;;;;;-1.36;78.42;96395.34;1705398;84;21115;-76
2022/10/21 05:13:12;;;;;;;5.47;1.93;;;;;;;-1.36;77.60;96401.81;1705179;84;21069;-72
2022/10/21 05:15:40;;;;;;;8.27;3.77;;;;;;;-1.43;77.69;96400.70;1740361;82;21215;-72
2022/10/21 05:18:06;;;;;;;16.67;14.87;;;;;;;-1.46;78.59;96406.14;1731019;82;21014;-75
2022/10/21 05:20:34;;;;;;;2.10;0.90;;;;;;;-1.45;78.09;96410.52;1732260;82;21645;-78
2022/10/21 05:23:00;;;;;;;1.27;0.80;;;;;;;-1.44;78.30;96406.68;1738246;82;21211;-74
2022/10/21 05:25:27;;;;;;;1.80;0.60;;;;;;;-1.40;77.70;96404.70;1700254;84;21081;-78
2022/10/21 05:27:54;;;;;;;0.50;0.40;;;;;;;-1.37;78.15;96407.41;1729429;82;21063;-73
2022/10/21 05:30:20;;;;;;;8.90;5.77;;;;;;;-1.36;77.73;96411.78;1737117;82;21041;-80
2022/10/21 05:32:48;;;;;;;13.57;6.77;;;;;;;-1.39;78.24;96409.46;1703619;82;21065;-83
2022/10/21 05:35:14;;;;;;;8.77;5.60;;;;;;;-1.39;78.18;96406.88;1725047;82;21065;-77
2022/10/21 05:37:41;;;;;;;8.23;4.70;;;;;;;-1.41;78.20;96400.74;1722812;82;21573;-75
2022/10/21 05:40:09;;;;;;;7.53;3.53;;;;;;;-1.37;78.38;96402.64;1724849;82;21070;-79
2022/10/21 05:42:35;;;;;;;2.60;1.40;;;;;;;-1.31;78.84;96417.15;1734872;82;21504;-78
2022/10/21 05:45:03;;;;;;;9.07;4.90;;;;;;;-1.26;78.45;96413.42;1735599;82;21109;-72
2022/10/21 05:47:29;;;;;;;6.40;2.73;;;;;;;-1.27;79.27;96412.96;1727136;82;21042;-79
2022/10/21 05:49:56;;;;;;;4.50;1.17;;;;;;;-1.23;78.96;96426.52;1734380;82;21125;-76
2022/10/21 05:52:23;;;;;;;2.77;1.60;;;;;;;-1.12;78.83;96423.51;1730151;82;21802;-72
2022/10/21 05:54:50;;;;;;;2.57;0.90;;;;;;;-1.03;79.36;96418.20;1736753;82;21168;-76
2022/10/21 05:57:16;;;;;;;2.17;1.00;;;;;;;-0.93;79.49;96417.78;1735942;82;21069;-77
2022/10/21 05:59:43;;;;;;;1.83;1.37;;;;;;;-0.93;79.25;96410.87;1736800;82;21543;-80
2022/10/21 06:02:10;;;;;;;2.87;1.80;;;;;;;-0.87;78.99;96412.40;1731890;82;21488;-74
2022/10/21 06:04:37;;;;;;;12.93;6.33;;;;;;;-0.78;79.37;96420.95;1711209;82;21235;-75
2022/10/21 06:07:03;;;;;;;7.37;4.20;;;;;;;-0.67;79.16;96418.77;1728755;82;21559;-74
2022/10/21 06:09:30;;;;;;;16.37;6.70;;;;;;;-0.58;79.31;96403.95;1724266;82;21125;-79
2022/10/21 06:11:57;;;;;;;10.07;4.47;;;;;;;-0.46;79.23;96409.17;1735381;82;21021;-75
2022/10/21 06:14:25;;;;;;;6.73;2.80;;;;;;;-0.32;78.38;96410.99;1727021;82;21153;-74
2022/10/21 06:16:52;;;;;;;7.00;2.20;;;;;;;-0.25;78.77;96418.17;1735816;82;21171;-80
2022/10/21 06:19:18;;;;;;;7.93;3.63;;;;;;;-0.18;79.13;96420.55;1693697;84;21083;-73
2022/10/21 06:21:47;;;;;;;14.20;7.27;;;;;;;-0.06;79.03;96418.81;1714306;83;21092;-81
2022/10/21 06:24:14;;;;;;;13.07;7.60;;;;;;;0.13;78.95;96409.98;1715166;83;21071;-75
2022/10/21 06:26:41;;;;;;;14.47;9.27;;;;;;;0.34;78.38;96405.50;1710156;84;21053;-79
2022/10/21 06:29:08;;;;;;;29.97;17.47;;;;;;;0.46;76.61;96414.55;1715820;83;21135;-74
2022/10/21 06:31:35;;;;;;;7.53;4.70;;;;;;;0.51;76.75;96409.98;1714228;82;21175;-73
2022/10/21 06:34:02;;;;;;;7.17;4.73;;;;;;;0.56;76.60;96416.63;1711042;83;21087;-71
2022/10/21 06:36:29;;;;;;;9.07;4.93;;;;;;;0.57;76.39;96420.55;1705908;83;21550;-75
2022/10/21 06:38:55;;;;;;;9.10;5.13;;;;;;;0.63;76.93;96413.37;1668728;85;21124;-75
2022/10/21 06:41:22;;;;;;;9.10;6.20;;;;;;;0.71;76.86;96410.63;1715943;82;20998;-72
2022/10/21 06:43:48;;;;;;;9.53;5.80;;;;;;;0.81;76.57;96403.59;1675517;85;21128;-75
2022/10/21 06:46:15;;;;;;;8.17;5.63;;;;;;;0.94;76.58;96394.89;1703328;84;21015;-73
2022/10/21 06:48:42;;;;;;;9.07;5.70;;;;;;;1.05;76.29;96393.07;1707896;83;21593;-69
2022/10/21 06:51:14;;;;;;;9.23;4.50;;;;;;;1.21;75.77;96398.34;1676822;84;21045;-72
2022/10/21 06:53:42;;;;;;;9.47;6.00;;;;;;;1.43;75.91;96395.94;1702219;84;21137;-75
2022/10/21 06:56:15;;;;;;;12.97;6.20;;;;;;;1.60;75.30;96392.97;1705921;83;21531;-71
2022/10/21 06:58:45;;;;;;;;;;;;;;;1.70;75.10;96385.45;1672793;85;21108;-79
2022/10/21 07:01:16;;;;;;;9.87;5.57;;;;;;;1.93;75.63;96391.30;1709176;83;20106;-75
2022/10/21 07:03:43;;;;;;;12.00;6.73;;;;;;;2.19;73.88;96391.55;1705988;84;21051;-72
2022/10/21 07:06:10;;;;;;;13.13;7.23;;;;;;;2.32;73.80;96393.22;1716044;83;21084;-74
2022/10/21 07:08:36;;;;;;;19.63;11.80;;;;;;;2.35;72.99;96388.09;1710925;83;21077;-71
2022/10/21 07:11:03;;;;;;;15.93;8.60;;;;;;;2.51;72.99;96382.84;1710996;83;21041;-78
2022/10/21 07:13:30;;;;;;;15.10;8.83;;;;;;;2.74;73.72;96381.22;1704573;83;21142;-74
2022/10/21 07:16:02;;;;;;;14.50;8.97;;;;;;;2.93;71.37;96380.83;1705224;83;21040;-77
2022/10/21 07:18:30;;;;;;;12.00;8.07;;;;;;;3.13;72.06;96377.80;1709997;82;21590;-79
2022/10/21 07:21:07;;;;;;;19.23;13.23;;;;;;;3.27;72.66;96378.10;1715633;83;21064;-77
2022/10/21 07:23:34;;;;;;;37.90;29.97;;;;;;;3.47;72.06;96377.67;1709049;82;21116;-75
2022/10/21 07:26:07;;;;;;;23.57;19.43;;;;;;;3.54;71.45;96376.52;1710250;83;21041;-71
2022/10/21 07:28:34;;;;;;;12.40;8.93;;;;;;;3.60;71.56;96372.72;1706525;83;21696;-81
2022/10/21 07:31:03;;;;;;;8.77;5.33;;;;;;;3.71;70.91;96375.58;1716329;83;21048;-73
2022/10/21 07:33:29;;;;;;;9.23;6.00;;;;;;;3.84;71.33;96370.62;1716629;83;21128;-77
2022/10/21 07:36:22;;;;;;;13.20;9.80;;;;;;;4.07;70.99;96370.19;1732167;82;20994;-75
2022/10/21 07:38:51;;;;;;;75.40;55.80;;;;;;;4.32;69.81;96367.17;1737795;82;21021;-76
2022/10/21 07:41:23;;;;;;;10.93;8.50;;;;;;;4.53;69.81;96359.25;1739387;82;21089;-77
2022/10/21 07:43:50;;;;;;;8.40;5.43;;;;;;;4.67;69.97;96356.88;1743662;82;21006;-75
2022/10/21 07:46:19;;;;;;;11.43;6.50;;;;;;;4.80;69.49;96350.98;1734942;82;21163;-76
2022/10/21 07:48:46;;;;;;;6.70;4.27;;;;;;;4.96;69.30;96348.17;1732236;82;21516;-75
2022/10/21 07:51:17;;;;;;;7.50;4.30;;;;;;;5.13;68.81;96359.77;1711243;84;21578;-77
2022/10/21 07:53:44;;;;;;;10.50;6.23;;;;;;;5.32;68.61;96367.47;1711423;84;21120;-79
2022/10/21 07:56:15;;;;;;;6.27;3.30;;;;;;;5.50;67.64;96357.68;1714762;83;21555;-77
2022/10/21 07:58:43;;;;;;;46.83;21.73;;;;;;;5.71;68.13;96361.44;1738286;81;21072;-79
2022/10/21 08:01:13;;;;;;;165.03;75.60;;;;;;;5.88;67.61;96359.91;1733498;82;21540;-74
2022/10/21 08:03:40;;;;;;;31.00;16.77;;;;;;;6.07;67.14;96346.59;1732404;82;21029;-81
2022/10/21 08:06:10;;;;;;;41.57;20.63;;;;;;;6.29;66.67;96341.16;1734434;82;21038;-78
2022/10/21 08:08:37;;;;;;;24.47;16.13;;;;;;;6.52;67.30;96336.57;1727825;82;21129;-78
2022/10/21 08:11:06;;;;;;;6.50;5.07;;;;;;;6.71;66.78;96329.31;1729227;82;21188;-76
2022/10/21 08:13:33;;;;;;;5.83;3.00;;;;;;;6.92;65.54;96324.22;1730573;82;21626;-73
2022/10/21 08:16:03;;;;;;;5.27;2.87;;;;;;;7.12;65.59;96326.11;1729656;82;21062;-74
2022/10/21 08:18:29;;;;;;;10.37;2.27;;;;;;;7.34;65.62;96317.95;1726193;82;21101;-75
2022/10/21 08:20:56;;;;;;;2.23;1.37;;;;;;;7.57;65.59;96321.55;1728735;82;21117;-77
2022/10/21 08:23:25;;;;;;;3.90;1.50;;;;;;;7.80;63.25;96324.27;1727695;82;21064;-77
2022/10/21 08:25:55;;;;;;;3.57;1.40;;;;;;;7.99;63.48;96316.03;1728204;82;21081;-75
2022/10/21 08:28:25;;;;;;;4.60;1.57;;;;;;;8.21;62.14;96312.13;1728580;82;21045;-78
2022/10/21 08:30:52;;;;;;;2.83;1.53;;;;;;;8.40;61.56;96311.78;1728251;83;21033;-79
2022/10/21 08:33:19;;;;;;;1.93;1.40;;;;;;;8.59;62.24;96317.91;1728728;82;21154;-83
2022/10/21 08:35:46;;;;;;;1.60;1.13;;;;;;;8.68;60.38;96310.04;1728248;83;21089;-70
2022/10/21 08:38:13;;;;;;;2.90;1.70;;;;;;;8.76;60.76;96306.09;1727754;82;21113;-75
2022/10/21 08:40:45;;;;;;;2.93;1.43;;;;;;;8.92;61.09;96310.48;1731476;82;21116;-73
2022/10/21 08:43:25;;;;;;;3.65;1.42;;;;;;;9.04;59.56;96308.27;1729396;82;21081;-79
2022/10/21 08:45:57;;;;;;;2.57;1.30;;;;;;;9.14;59.29;96303.42;1728931;83;21089;-78
2022/10/21 08:48:29;;;;;;;3.63;1.20;;;;;;;9.32;58.71;96303.81;1728437;82;21046;-75
2022/10/21 08:50:57;;;;;;;1.77;1.20;;;;;;;9.42;57.58;96307.31;1726659;82;22090;-73
2022/10/21 08:53:38;;;;;;;7.13;1.60;;;;;;;9.51;55.51;96307.30;1728042;83;21117;-80
2022/10/21 08:56:09;;;;;;;3.10;1.63;;;;;;;9.60;56.56;96304.64;1726910;82;22070;-79
2022/10/21 08:58:36;;;;;;;2.83;1.40;;;;;;;9.83;57.44;96305.00;1727097;82;21142;-76
2022/10/21 09:01:26;;;;;;;4.57;1.20;;;;;;;9.93;55.34;96296.16;1728442;82;21077;-78
2022/10/21 09:04:01;;;;;;;2.53;1.57;;;;;;;9.99;54.26;96292.61;1727480;82;21082;-63
2022/10/21 09:06:36;;;;;;;3.60;1.60;;;;;;;10.05;54.79;96293.44;1725875;82;21073;-62
2022/10/21 09:09:30;;;;;;;5.30;2.43;;;;;;;10.18;55.20;96295.59;1726816;82;21166;-62
2022/10/21 09:12:18;;;;;;;2.13;1.60;;;;;;;10.30;53.21;96284.10;1722437;82;21335;-62
2022/10/21 09:15:14;;;;;;;18.77;7.80;;;;;;;10.47;54.39;96277.41;1708554;82;21114;-63
2022/10/21 09:17:52;;;;;;;12.77;2.93;;;;;;;10.59;51.98;96269.40;1728964;82;21074;-63
2022/10/21 09:20:39;;;;;;;32.50;15.20;;;;;;;10.71;52.59;96274.58;1726564;82;21611;-62
2022/10/21 09:23:46;;;;;;;4.30;2.30;;;;;;;10.80;52.25;96281.08;1728220;82;21065;-62
2022/10/21 09:26:40;;;;;;;3.90;1.93;;;;;;;10.91;51.57;96278.38;1728465;82;21124;-62
2022/10/21 09:29:28;;;;;;;6.90;2.17;;;;;;;11.03;51.46;96282.19;1726972;82;21039;-62
2022/10/21 09:32:18;;;;;;;3.80;1.92;;;;;;;11.14;52.83;96277.28;1725349;82;21529;-62
2022/10/21 09:34:56;;;;;;;4.67;2.10;;;;;;;11.32;53.36;96269.16;1726427;82;21003;-62
2022/10/21 09:37:48;;;;;;;2.93;1.90;;;;;;;11.48;51.66;96270.73;1728704;82;21551;-62
2022/10/21 09:40:22;;;;;;;4.67;2.10;;;;;;;11.59;51.67;96267.98;1728139;82;21092;-62
2022/10/21 09:42:54;;;;;;;2.85;1.70;;;;;;;11.74;50.78;96260.28;1727956;82;21103;-62
2022/10/21 09:45:29;;;;;;;3.00;1.82;;;;;;;11.85;49.50;96270.75;1728284;82;21145;-62
2022/10/21 09:48:25;;;;;;;4.08;2.52;;;;;;;11.91;48.08;96267.59;1727559;82;21069;-62
2022/10/21 09:51:13;;;;;;;44.13;21.12;;;;;;;12.02;47.21;96262.19;1728191;82;21074;-62
2022/10/21 09:53:50;;;;;;;4.85;3.27;;;;;;;12.14;48.83;96261.12;1728175;82;21030;-61
2022/10/21 09:56:21;;;;;;;2.08;1.80;;;;;;;12.27;49.70;96260.49;1730331;82;21050;-62
2022/10/21 09:58:53;;;;;;;3.83;1.87;;;;;;;12.29;48.18;96264.86;1727961;82;21010;-62
2022/10/21 10:01:21;;;;;;;6.03;1.90;;;;;;;12.39;48.42;96262.09;1726310;83;21037;-62
2022/10/21 10:03:51;;;;;;;3.98;2.37;;;;;;;12.53;48.33;96254.38;1727875;82;21523;-61
2022/10/21 10:06:41;;;;;;;3.90;1.90;;;;;;;12.63;47.18;96258.20;1729952;82;21038;-62
2022/10/21 10:09:29;;;;;;;2.95;1.87;;;;;;;12.78;48.16;96250.87;1729282;82;21036;-62
2022/10/21 10:12:12;;;;;;;3.45;2.20;;;;;;;13.08;45.81;96251.68;1730016;82;21039;-62
2022/10/21 10:14:44;;;;;;;4.97;2.00;;;;;;;13.57;44.51;96252.13;1729868;82;21069;-62
2022/10/21 10:17:28;;;;;;;4.65;2.00;;;;;;;14.06;45.70;96241.81;1729693;83;21038;-62
2022/10/21 10:20:11;;;;;;;3.30;1.85;;;;;;;14.55;44.00;96250.03;1729606;83;21535;-62
2022/10/21 10:22:42;;;;;;;3.20;1.80;;;;;;;14.95;44.07;96248.20;1730058;83;21038;-62
2022/10/21 10:25:17;;;;;;;17.05;13.78;;;;;;;15.38;43.27;96244.41;1729525;82;21034;-62
2022/10/21 10:27:54;;;;;;;7.85;4.05;;;;;;;15.64;39.25;96237.90;1728579;82;21108;-62
2022/10/21 10:30:23;;;;;;;5.42;2.17;;;;;;;15.87;39.40;96237.73;1729427;83;21038;-62
2022/10/21 10:32:53;;;;;;;2.95;2.00;;;;;;;16.33;39.70;96231.02;1729141;82;21125;-62
2022/10/21 10:35:25;;;;;;;2.90;1.85;;;;;;;16.79;39.54;96235.80;1732008;82;21096;-63
2022/10/21 10:37:53;;;;;;;6.00;2.00;;;;;;;17.20;38.22;96232.67;1728818;82;21049;-62
2022/10/21 10:40:38;;;;;;;11.03;2.20;;;;;;;17.61;38.47;96230.33;1729123;82;21030;-62
2022/10/21 10:43:25;;;;;;;2.17;1.37;;;;;;;17.88;36.64;96224.48;1727210;83;21045;-62
2022/10/21 10:46:02;;;;;;;3.37;1.90;;;;;;;18.11;36.83;96227.14;1730605;82;21081;-62
2022/10/21 10:48:43;;;;;;;8.58;2.83;;;;;;;18.49;35.54;96216.77;1729713;82;21042;-62
2022/10/21 10:51:29;;;;;;;2.25;1.70;;;;;;;18.60;34.81;96219.03;1724684;82;21046;-63
2022/10/21 10:54:20;;;;;;;3.77;1.82;;;;;;;18.78;33.58;96220.11;1729403;83;21037;-63
2022/10/21 10:57:25;;;;;;;3.55;1.77;;;;;;;18.94;34.61;96218.53;1728244;82;21085;-62
2022/10/21 11:00:19;;;;;;;3.52;1.65;;;;;;;19.37;35.29;96207.34;1729257;82;21106;-62
2022/10/21 11:03:06;;;;;;;3.80;1.60;;;;;;;19.72;34.05;96200.93;1705431;82;21033;-62
2022/10/21 11:05:49;;;;;;;2.45;1.45;;;;;;;19.93;31.69;96197.73;1729195;82;21053;-63
2022/10/21 11:08:33;;;;;;;1.80;1.70;;;;;;;20.20;32.18;96202.77;1697998;82;21065;-62
2022/10/21 11:11:05;;;;;;;1.62;1.50;;;;;;;20.29;31.39;96188.95;1727538;82;21098;-62
2022/10/21 11:13:35;;;;;;;1.90;1.67;;;;;;;20.23;31.01;96199.45;1727037;82;21006;-62
2022/10/21 11:16:42;;;;;;;2.85;1.50;;;;;;;20.35;29.55;96183.76;1726581;82;21038;-62
2022/10/21 11:19:43;;;;;;;2.45;1.70;;;;;;;20.46;30.16;96179.62;1729074;82;21090;-62
2022/10/21 11:22:27;;;;;;;1.90;1.62;;;;;;;20.67;30.75;96175.53;1727979;82;21547;-62
2022/10/21 11:25:06;;;;;;;2.12;1.50;;;;;;;20.89;30.89;96172.18;1727817;82;21540;-62
2022/10/21 11:27:56;;;;;;;6.40;1.62;;;;;;;21.18;28.83;96168.00;1726121;81;21051;-62
2022/10/21 11:30:37;;;;;;;3.47;1.80;;;;;;;21.26;29.03;96165.40;1718684;83;21707;-62
2022/10/21 11:33:11;;;;;;;7.87;1.87;;;;;;;21.44;29.29;96163.12;1722028;83;20999;-63
2022/10/21 11:35:50;;;;;;;3.92;1.60;;;;;;;21.49;27.81;96161.54;1723549;83;21125;-63
2022/10/21 11:38:46;;;;;;;3.33;1.50;;;;;;;21.56;28.03;96161.13;1734055;83;21508;-62
2022/10/21 11:41:39;;;;;;;4.03;1.60;;;;;;;21.33;27.27;96159.63;1667219;83;20998;-62
2022/10/21 11:44:18;;;;;;;1.77;1.50;;;;;;;21.45;28.06;96154.14;1730632;83;21055;-62
2022/10/21 11:47:19;;;;;;;4.40;1.35;;;;;;;21.95;27.90;96157.75;1723094;83;21543;-62
2022/10/21 11:49:56;;;;;;;2.15;1.55;;;;;;;22.11;27.51;96147.88;1723630;82;21046;-62
2022/10/21 11:53:11;;;;;;;3.45;1.60;;;;;;;22.34;26.17;96143.93;1723756;83;21542;-62
2022/10/21 11:56:08;;;;;;;5.78;1.80;;;;;;;22.58;25.56;96135.41;1643067;86;21073;-62
2022/10/21 11:59:17;;;;;;;3.00;1.40;;;;;;;22.30;24.71;96140.15;1731237;83;21629;-62
2022/10/21 12:01:49;;;;;;;2.33;1.70;;;;;;;21.97;26.28;96136.56;1725881;83;21030;-61